Beaver City, Nebraska
Current Conditions -  °F | °C
As of 2:55 AM on Sunday 23 Nov 2014 (Local Time) from KHDE Reporting Station
Haze Haze  
Wind Chill: 44°   Ceiling: Unl
Heat Index: 44°   Visibility: 4mi
Dew Point: 43°   Wind: 0mph
Humidity: 95%   Direction: NA
Pressure: 29.45"   Gusts: NA
Location:  40.14°N, 99.83°W
Report Text: KHDE 230855Z AUTO 00000KT 4SM BR CLR 07/06 A2945 RMK AO2 T00690061
Loading
Personal Weather Stations






























Interactive Weather Map New forecast layout! Learn more

10-Day Weather Forecast

Advertisements
Track Severe Weather on mobile